sensor_id;sensor_type;location;lat;lon;timestamp;temperature;humidity
53926;DHT22;39836;52.754;6.866;2023-08-07T10:23:40;18.00;75.60
53926;DHT22;39836;52.754;6.866;2023-08-07T10:26:09;18.10;75.50
53926;DHT22;39836;52.754;6.866;2023-08-07T10:28:38;18.00;76.00
53926;DHT22;39836;52.754;6.866;2023-08-07T10:31:06;17.90;75.00
53926;DHT22;39836;52.754;6.866;2023-08-07T10:33:33;17.70;75.90
53926;DHT22;39836;52.754;6.866;2023-08-07T10:36:02;17.50;76.10
53926;DHT22;39836;52.754;6.866;2023-08-07T10:38:35;17.40;76.00
53926;DHT22;39836;52.754;6.866;2023-08-07T10:41:14;17.30;77.00
53926;DHT22;39836;52.754;6.866;2023-08-07T10:43:44;17.30;76.70
53926;DHT22;39836;52.754;6.866;2023-08-07T10:46:15;17.50;76.40
53926;DHT22;39836;52.754;6.866;2023-08-07T10:48:42;17.70;75.70
53926;DHT22;39836;52.754;6.866;2023-08-07T10:51:18;18.00;75.60
53926;DHT22;39836;52.754;6.866;2023-08-07T10:53:50;18.10;75.30
53926;DHT22;39836;52.754;6.866;2023-08-07T10:58:56;18.20;74.70
53926;DHT22;39836;52.754;6.866;2023-08-07T11:04:10;17.90;74.80
53926;DHT22;39836;52.754;6.866;2023-08-07T11:06:38;17.80;74.40
53926;DHT22;39836;52.754;6.866;2023-08-07T11:09:05;17.70;74.40
53926;DHT22;39836;52.754;6.866;2023-08-07T11:11:38;17.60;74.30
53926;DHT22;39836;52.754;6.866;2023-08-07T11:14:17;17.70;74.80
53926;DHT22;39836;52.754;6.866;2023-08-07T11:16:45;17.90;75.90
53926;DHT22;39836;52.754;6.866;2023-08-07T11:19:16;18.00;76.30
53926;DHT22;39836;52.754;6.866;2023-08-07T11:21:42;18.10;76.70
53926;DHT22;39836;52.754;6.866;2023-08-07T11:24:08;18.10;75.50
53926;DHT22;39836;52.754;6.866;2023-08-07T11:26:35;18.00;76.10
53926;DHT22;39836;52.754;6.866;2023-08-07T11:29:01;17.90;76.30
53926;DHT22;39836;52.754;6.866;2023-08-07T11:31:26;17.80;75.90
53926;DHT22;39836;52.754;6.866;2023-08-07T11:33:56;17.70;75.30
53926;DHT22;39836;52.754;6.866;2023-08-07T11:36:28;17.70;74.80
53926;DHT22;39836;52.754;6.866;2023-08-07T11:38:54;17.70;75.30
53926;DHT22;39836;52.754;6.866;2023-08-07T11:41:20;17.70;75.30
53926;DHT22;39836;52.754;6.866;2023-08-07T11:43:47;17.80;74.70
53926;DHT22;39836;52.754;6.866;2023-08-07T11:46:15;18.10;74.40
53926;DHT22;39836;52.754;6.866;2023-08-07T11:48:42;18.30;75.10
53926;DHT22;39836;52.754;6.866;2023-08-07T11:51:08;18.50;75.10
53926;DHT22;39836;52.754;6.866;2023-08-07T11:53:35;18.60;75.50
53926;DHT22;39836;52.754;6.866;2023-08-07T11:58:35;18.40;74.50
53926;DHT22;39836;52.754;6.866;2023-08-07T12:01:12;18.40;74.60
53926;DHT22;39836;52.754;6.866;2023-08-07T12:03:40;18.50;74.40
53926;DHT22;39836;52.754;6.866;2023-08-07T12:06:07;18.60;73.10
53926;DHT22;39836;52.754;6.866;2023-08-07T12:08:36;18.60;73.20
53926;DHT22;39836;52.754;6.866;2023-08-07T12:11:07;18.60;74.00
53926;DHT22;39836;52.754;6.866;2023-08-07T12:13:41;18.60;73.60
53926;DHT22;39836;52.754;6.866;2023-08-07T12:16:07;18.60;73.30
53926;DHT22;39836;52.754;6.866;2023-08-07T12:18:34;18.70;73.40
53926;DHT22;39836;52.754;6.866;2023-08-07T12:21:03;18.80;73.60
53926;DHT22;39836;52.754;6.866;2023-08-07T12:23:36;19.00;74.00
53926;DHT22;39836;52.754;6.866;2023-08-07T12:26:02;19.00;73.70
53926;DHT22;39836;52.754;6.866;2023-08-07T12:28:28;19.10;73.50
53926;DHT22;39836;52.754;6.866;2023-08-07T12:30:54;19.10;73.70
53926;DHT22;39836;52.754;6.866;2023-08-07T12:33:20;19.30;73.20
53926;DHT22;39836;52.754;6.866;2023-08-07T12:35:45;19.50;73.40
53926;DHT22;39836;52.754;6.866;2023-08-07T12:38:11;19.60;72.80
53926;DHT22;39836;52.754;6.866;2023-08-07T12:40:40;19.70;72.90
53926;DHT22;39836;52.754;6.866;2023-08-07T12:43:06;19.80;73.70
53926;DHT22;39836;52.754;6.866;2023-08-07T12:45:32;19.70;72.90
53926;DHT22;39836;52.754;6.866;2023-08-07T12:47:59;19.50;72.50
53926;DHT22;39836;52.754;6.866;2023-08-07T12:50:25;19.20;72.70
53926;DHT22;39836;52.754;6.866;2023-08-07T12:52:51;19.00;72.80
53926;DHT22;39836;52.754;6.866;2023-08-07T12:55:17;18.70;73.20
53926;DHT22;39836;52.754;6.866;2023-08-07T12:57:43;18.60;73.50
53926;DHT22;39836;52.754;6.866;2023-08-07T13:00:10;18.40;73.80
53926;DHT22;39836;52.754;6.866;2023-08-07T13:02:49;18.40;74.20
53926;DHT22;39836;52.754;6.866;2023-08-07T13:05:15;18.30;74.30
53926;DHT22;39836;52.754;6.866;2023-08-07T13:07:42;18.20;74.40
53926;DHT22;39836;52.754;6.866;2023-08-07T13:10:12;18.20;75.00
53926;DHT22;39836;52.754;6.866;2023-08-07T13:12:40;18.20;74.50
53926;DHT22;39836;52.754;6.866;2023-08-07T13:15:07;18.20;73.90
53926;DHT22;39836;52.754;6.866;2023-08-07T13:17:34;18.20;73.90
53926;DHT22;39836;52.754;6.866;2023-08-07T13:20:00;18.20;73.80
53926;DHT22;39836;52.754;6.866;2023-08-07T13:22:26;18.20;73.30
53926;DHT22;39836;52.754;6.866;2023-08-07T13:24:53;18.20;73.90
53926;DHT22;39836;52.754;6.866;2023-08-07T13:27:19;18.20;74.30
53926;DHT22;39836;52.754;6.866;2023-08-07T13:29:45;18.10;74.80
53926;DHT22;39836;52.754;6.866;2023-08-07T13:32:11;18.00;75.30
53926;DHT22;39836;52.754;6.866;2023-08-07T13:34:37;18.10;76.00
53926;DHT22;39836;52.754;6.866;2023-08-07T13:37:06;18.20;76.40
53926;DHT22;39836;52.754;6.866;2023-08-07T13:39:33;18.40;76.10
53926;DHT22;39836;52.754;6.866;2023-08-07T13:41:59;18.60;76.60
53926;DHT22;39836;52.754;6.866;2023-08-07T13:44:28;18.60;76.40
53926;DHT22;39836;52.754;6.866;2023-08-07T13:46:54;18.50;76.00
53926;DHT22;39836;52.754;6.866;2023-08-07T13:49:21;18.50;76.60
53926;DHT22;39836;52.754;6.866;2023-08-07T13:51:47;18.30;76.50
53926;DHT22;39836;52.754;6.866;2023-08-07T13:54:13;18.20;76.20
53926;DHT22;39836;52.754;6.866;2023-08-07T13:56:39;18.00;76.30
53926;DHT22;39836;52.754;6.866;2023-08-07T13:59:04;17.80;76.80
53926;DHT22;39836;52.754;6.866;2023-08-07T14:01:30;17.90;77.20
53926;DHT22;39836;52.754;6.866;2023-08-07T14:03:56;17.90;77.40
53926;DHT22;39836;52.754;6.866;2023-08-07T14:06:22;17.90;77.00
53926;DHT22;39836;52.754;6.866;2023-08-07T14:08:47;18.20;77.70
53926;DHT22;39836;52.754;6.866;2023-08-07T14:11:13;18.80;77.70
53926;DHT22;39836;52.754;6.866;2023-08-07T14:13:40;19.30;76.80
53926;DHT22;39836;52.754;6.866;2023-08-07T14:16:06;19.40;76.00
53926;DHT22;39836;52.754;6.866;2023-08-07T14:18:32;19.30;75.80
53926;DHT22;39836;52.754;6.866;2023-08-07T14:20:58;19.40;76.30
53926;DHT22;39836;52.754;6.866;2023-08-07T14:23:24;20.00;76.80
53926;DHT22;39836;52.754;6.866;2023-08-07T14:25:50;20.70;76.20
53926;DHT22;39836;52.754;6.866;2023-08-07T14:28:19;21.30;75.70
53926;DHT22;39836;52.754;6.866;2023-08-07T14:30:45;21.00;75.10
53926;DHT22;39836;52.754;6.866;2023-08-07T14:33:11;20.60;74.60
53926;DHT22;39836;52.754;6.866;2023-08-07T14:35:37;20.10;75.50
53926;DHT22;39836;52.754;6.866;2023-08-07T14:38:02;19.50;76.70
53926;DHT22;39836;52.754;6.866;2023-08-07T14:40:28;19.00;77.00
53926;DHT22;39836;52.754;6.866;2023-08-07T14:42:54;18.70;77.80
53926;DHT22;39836;52.754;6.866;2023-08-07T14:45:21;18.40;77.90
53926;DHT22;39836;52.754;6.866;2023-08-07T14:47:48;18.10;78.70
53926;DHT22;39836;52.754;6.866;2023-08-07T14:50:14;17.60;79.20
53926;DHT22;39836;52.754;6.866;2023-08-07T14:52:41;17.50;80.60
53926;DHT22;39836;52.754;6.866;2023-08-07T14:55:07;17.90;81.60
53926;DHT22;39836;52.754;6.866;2023-08-07T14:57:33;18.20;81.70
53926;DHT22;39836;52.754;6.866;2023-08-07T14:59:59;18.40;81.40
53926;DHT22;39836;52.754;6.866;2023-08-07T15:02:24;18.20;80.60
53926;DHT22;39836;52.754;6.866;2023-08-07T15:04:50;17.90;79.80
53926;DHT22;39836;52.754;6.866;2023-08-07T15:07:16;17.60;79.10
53926;DHT22;39836;52.754;6.866;2023-08-07T15:09:41;17.40;79.20
53926;DHT22;39836;52.754;6.866;2023-08-07T15:12:07;17.60;80.20
53926;DHT22;39836;52.754;6.866;2023-08-07T15:14:33;18.20;80.40
53926;DHT22;39836;52.754;6.866;2023-08-07T15:16:59;18.60;80.00
53926;DHT22;39836;52.754;6.866;2023-08-07T15:19:25;18.90;79.50
53926;DHT22;39836;52.754;6.866;2023-08-07T15:21:51;19.20;79.00
53926;DHT22;39836;52.754;6.866;2023-08-07T15:24:17;19.80;79.00
53926;DHT22;39836;52.754;6.866;2023-08-07T15:26:42;20.30;77.40
53926;DHT22;39836;52.754;6.866;2023-08-07T15:29:08;20.10;75.80
53926;DHT22;39836;52.754;6.866;2023-08-07T15:31:34;19.60;75.70
53926;DHT22;39836;52.754;6.866;2023-08-07T15:33:59;19.40;76.20
53926;DHT22;39836;52.754;6.866;2023-08-07T15:36:25;19.40;76.80
53926;DHT22;39836;52.754;6.866;2023-08-07T15:38:51;19.40;77.20
53926;DHT22;39836;52.754;6.866;2023-08-07T15:41:17;19.30;76.40
53926;DHT22;39836;52.754;6.866;2023-08-07T15:43:43;19.10;75.70
53926;DHT22;39836;52.754;6.866;2023-08-07T15:46:09;18.90;75.90
53926;DHT22;39836;52.754;6.866;2023-08-07T15:49:11;18.60;75.90
53926;DHT22;39836;52.754;6.866;2023-08-07T15:51:39;18.30;75.90
53926;DHT22;39836;52.754;6.866;2023-08-07T15:54:05;18.00;76.40
53926;DHT22;39836;52.754;6.866;2023-08-07T15:56:38;17.70;77.00
53926;DHT22;39836;52.754;6.866;2023-08-07T15:59:14;17.50;77.30
53926;DHT22;39836;52.754;6.866;2023-08-07T16:02:04;17.40;76.90
53926;DHT22;39836;52.754;6.866;2023-08-07T16:04:31;17.40;77.40
53926;DHT22;39836;52.754;6.866;2023-08-07T16:07:01;17.50;77.30
53926;DHT22;39836;52.754;6.866;2023-08-07T16:09:27;17.50;77.20
53926;DHT22;39836;52.754;6.866;2023-08-07T16:11:56;17.60;77.10
53926;DHT22;39836;52.754;6.866;2023-08-07T16:14:28;17.70;77.20
53926;DHT22;39836;52.754;6.866;2023-08-07T16:17:28;17.80;76.80
53926;DHT22;39836;52.754;6.866;2023-08-07T16:20:20;17.90;76.50
53926;DHT22;39836;52.754;6.866;2023-08-07T16:23:00;18.00;76.90
53926;DHT22;39836;52.754;6.866;2023-08-07T19:15:03;15.10;76.20
53926;DHT22;39836;52.754;6.866;2023-08-07T19:17:33;14.90;76.30
53926;DHT22;39836;52.754;6.866;2023-08-07T19:19:59;14.90;76.50
